»·PEaware :: SKW4461 KSLC-KIDA

SKW4461 :: KSLC-KIDA

FLIGHT INFORMATION

Flight Status: Arrived
Operator:
SkyWest Airlines
More flights by this operator :: More flights under this callsign
Pilot: Chandler S. (807)
Aircraft: EMBRAER EMB-170/175
(E170)
More flights by this aircraft type
Origin: KSLC Salt Lake City Intl
United States
Destination: KIDA Idaho Falls Regl
United States
More flights between these airports :: More routes between these airports
Route: NSIGN5 HOLTR
File this flight plan on PilotEdge
Remarks:
Altitude:
(Current/Filed)
26,000ft
Speed:
(Current/Filed)
300kts
Departed: 15-May-18 06:04 PM
Arrived: 15-May-18 06:36 PM
Distance/Time
Traveled:
164nm/0:32
Distance/Time
To Go:
Arrived

Flight Plot

Page will automatically refresh every two minutes.

Flight plan parsing failed; only flown route is shown


Map Options




Map Legend


Flown Route
Filed Route
Departure Airport
Arrival Airport
Navaid (VOR, NDB)
Fix

Horizontal Profiles

Position Reports

Time Latitude Longitude Heading Altitude Ground
Speed
15-May-18 17:31 40.787376 -111.977819 272 4235ft 0kts
15-May-18 17:32 40.787376 -111.977819 272 4235ft 0kts
15-May-18 17:33 40.787376 -111.977819 272 4235ft 0kts
15-May-18 17:34 40.787376 -111.977819 272 4235ft 0kts
15-May-18 17:35 40.787376 -111.977819 272 4235ft 0kts
15-May-18 17:36 40.787376 -111.977819 272 4235ft 0kts
15-May-18 17:37 40.787376 -111.977819 272 4235ft 0kts
15-May-18 17:38 40.787376 -111.977819 272 4235ft 0kts
15-May-18 17:39 40.787376 -111.977819 272 4235ft 0kts
15-May-18 17:40 40.787376 -111.977819 272 4235ft 0kts
15-May-18 17:41 40.787376 -111.977819 272 4235ft 0kts
15-May-18 17:42 40.787376 -111.977819 272 4235ft 0kts
15-May-18 17:43 40.787376 -111.977819 272 4235ft 0kts
15-May-18 17:44 40.787376 -111.977819 272 4235ft 0kts
15-May-18 17:45 40.787376 -111.977819 272 4235ft 0kts
15-May-18 17:46 40.787376 -111.977819 272 4235ft 0kts
15-May-18 17:47 40.787376 -111.977819 272 4235ft 0kts
15-May-18 17:48 40.787376 -111.977819 272 4235ft 0kts
15-May-18 17:49 40.787376 -111.977819 272 4235ft 0kts
15-May-18 17:50 40.787376 -111.977819 272 4235ft 0kts
15-May-18 17:51 40.787376 -111.977819 272 4235ft 0kts
15-May-18 17:52 40.787376 -111.977819 272 4235ft 0kts
15-May-18 17:53 40.787376 -111.977819 272 4235ft 0kts
15-May-18 17:54 40.787376 -111.977819 272 4235ft 0kts
15-May-18 17:55 40.787376 -111.977819 272 4235ft 0kts
15-May-18 17:56 40.787371 -111.977664 272 4235ft 2kts
15-May-18 17:57 40.787421 -111.976966 230 4235ft 2kts
15-May-18 17:58 40.787703 -111.976816 174 4235ft 0kts
15-May-18 17:59 40.787703 -111.976816 174 4235ft 0kts
15-May-18 18:00 40.786690 -111.976705 175 4235ft 15kts
15-May-18 18:01 40.780850 -111.975992 169 4235ft 24kts
15-May-18 18:02 40.774602 -111.974653 137 4235ft 0kts
15-May-18 18:03 40.774602 -111.974653 137 4235ft 0kts
15-May-18 18:04 40.778084 -111.973552 354 4235ft 93kts
15-May-18 18:05 40.833672 -111.979844 352 7249ft 239kts
15-May-18 18:06 40.904195 -111.989988 352 9992ft 294kts
15-May-18 18:07 40.989122 -112.001847 351 10027ft 323kts
15-May-18 18:08 41.077369 -112.001130 26 10471ft 315kts
15-May-18 18:09 41.144355 -111.927141 46 12906ft 339kts
15-May-18 18:10 41.212700 -111.838470 33 17001ft 361kts
15-May-18 18:11 41.301744 -111.770838 28 20534ft 382kts
15-May-18 18:12 41.399774 -111.707089 17 23078ft 435kts
15-May-18 18:13 41.516613 -111.659431 15 23084ft 451kts
15-May-18 18:14 41.640045 -111.610141 15 26042ft 458kts
15-May-18 18:15 41.761823 -111.561347 15 26086ft 459kts
15-May-18 18:16 41.893340 -111.525762 7 26110ft 479kts
15-May-18 18:17 42.024309 -111.496075 7 26087ft 478kts
15-May-18 18:18 42.150280 -111.467476 7 26101ft 478kts
15-May-18 18:19 42.281044 -111.440658 358 26154ft 475kts
15-May-18 18:20 42.405428 -111.487880 335 26138ft 466kts
15-May-18 18:21 42.525920 -111.549956 335 26167ft 465kts
15-May-18 18:22 42.646546 -111.612601 335 26194ft 466kts
15-May-18 18:23 42.767129 -111.675483 335 25470ft 465kts
15-May-18 18:24 42.886537 -111.738002 335 24268ft 461kts
15-May-18 18:25 43.002783 -111.799227 337 22673ft 429kts
15-May-18 18:26 43.107429 -111.854357 338 20603ft 396kts
15-May-18 18:27 43.160132 -111.882245 338 19489ft 382kts
15-May-18 18:28 43.251477 -111.930712 338 17703ft 333kts
15-May-18 18:29 43.332525 -111.971396 356 15281ft 314kts
15-May-18 18:30 43.418818 -111.949442 11 12928ft 310kts
15-May-18 18:31 43.502223 -111.925414 11 10502ft 288kts
15-May-18 18:32 43.576418 -111.919655 347 9932ft 252kts
15-May-18 18:33 43.592947 -111.991614 216 8017ft 223kts
15-May-18 18:34 43.550065 -112.032875 219 5788ft 152kts
15-May-18 18:35 43.519445 -112.066824 219 4759ft 132kts
15-May-18 18:36 43.509545 -112.075637 38 4746ft 10kts
15-May-18 18:37 43.513511 -112.071420 37 4746ft 18kts
15-May-18 18:38 43.515062 -112.068640 140 4746ft 0kts

Navigation Log

Ident Type
Flight plan parsing failed, navigation log unavailable